createdAt,value
2023-01-26T00:04:47.255Z,21.00
2023-01-26T00:09:50.017Z,22.48
2023-01-26T00:14:52.750Z,20.38
2023-01-26T00:19:58.875Z,20.85
2023-01-26T00:25:01.673Z,22.15
2023-01-26T00:30:05.136Z,21.52
2023-01-26T00:35:10.408Z,20.40
2023-01-26T00:40:13.667Z,22.17
2023-01-26T00:45:16.728Z,21.25
2023-01-26T00:50:22.479Z,22.42
2023-01-26T00:55:32.090Z,21.30
2023-01-26T01:00:38.607Z,21.55
2023-01-26T01:05:42.887Z,22.50
2023-01-26T01:10:48.578Z,22.20
2023-01-26T01:15:51.439Z,23.20
2023-01-26T01:20:55.652Z,21.77
2023-01-26T01:25:58.799Z,22.02
2023-01-26T01:31:05.354Z,22.85
2023-01-26T01:36:12.197Z,22.75
2023-01-26T01:41:15.911Z,21.40
2023-01-26T01:46:27.796Z,22.17
2023-01-26T01:51:35.732Z,22.30
2023-01-26T01:56:41.882Z,23.73
2023-01-26T02:01:44.662Z,23.33
2023-01-26T02:06:51.327Z,21.77
2023-01-26T02:11:54.241Z,22.60
2023-01-26T02:16:57.346Z,22.65
2023-01-26T02:22:08.805Z,21.48
2023-01-26T02:27:13.368Z,21.70
2023-01-26T02:32:16.386Z,19.83
2023-01-26T02:37:19.475Z,20.95
2023-01-26T02:42:43.348Z,19.90
2023-01-26T02:47:46.378Z,19.88
2023-01-26T02:52:49.247Z,19.83
2023-01-26T03:03:03.002Z,19.80
2023-01-26T03:08:07.401Z,19.83
2023-01-26T03:13:14.231Z,19.55
2023-01-26T03:18:36.115Z,18.42
2023-01-26T03:23:56.671Z,20.00
2023-01-26T03:29:02.256Z,18.88
2023-01-26T03:34:05.431Z,18.75
2023-01-26T03:39:08.696Z,20.60
2023-01-26T03:44:30.362Z,21.17
2023-01-26T03:49:51.713Z,18.58
2023-01-26T03:55:13.020Z,21.63
2023-01-26T04:00:17.794Z,21.13
2023-01-26T04:05:39.308Z,19.23
2023-01-26T04:10:42.670Z,20.58
2023-01-26T04:16:06.061Z,20.85
2023-01-26T04:21:26.327Z,19.73
2023-01-26T04:26:34.804Z,19.50
2023-01-26T04:31:41.613Z,19.13
2023-01-26T04:36:45.127Z,17.13
2023-01-26T04:41:49.858Z,15.90
2023-01-26T04:46:55.029Z,16.25
2023-01-26T04:51:58.355Z,16.33
2023-01-26T04:57:02.370Z,15.82
2023-01-26T05:02:06.790Z,16.15
2023-01-26T05:07:09.721Z,15.65
2023-01-26T05:12:27.052Z,14.15
2023-01-26T05:17:54.180Z,15.82
2023-01-26T05:23:12.357Z,16.35
2023-01-26T05:28:38.035Z,14.23
2023-01-26T05:33:42.263Z,15.15
2023-01-26T05:38:48.282Z,15.20
2023-01-26T05:43:53.433Z,15.20
2023-01-26T05:49:14.476Z,14.13
2023-01-26T05:54:17.698Z,14.43
2023-01-26T05:59:20.762Z,13.27
2023-01-26T06:04:25.337Z,16.25
2023-01-26T06:09:30.759Z,15.38
2023-01-26T06:15:03.623Z,15.38
2023-01-26T06:20:14.745Z,13.07
2023-01-26T06:30:23.867Z,13.70
2023-01-26T06:35:28.207Z,15.10
2023-01-26T06:40:34.130Z,14.38
2023-01-26T06:45:37.913Z,13.75
2023-01-26T06:50:42.404Z,15.07
2023-01-26T06:55:49.453Z,14.15
2023-01-26T07:01:09.583Z,13.98
2023-01-26T07:06:14.028Z,14.13
2023-01-26T07:11:17.371Z,13.48
2023-01-26T07:16:20.565Z,13.82
2023-01-26T07:21:24.963Z,13.25
2023-01-26T07:26:27.703Z,14.13
2023-01-26T07:31:30.531Z,13.48
2023-01-26T07:36:34.753Z,13.25
2023-01-26T07:41:37.536Z,13.43
2023-01-26T07:46:59.516Z,14.23
2023-01-26T07:52:04.808Z,12.65
2023-01-26T07:57:08.294Z,13.18
2023-01-26T08:02:11.541Z,12.80
2023-01-26T08:07:31.157Z,12.95
2023-01-26T08:12:40.152Z,12.82
2023-01-26T08:17:44.137Z,13.52
2023-01-26T08:22:48.257Z,11.38
2023-01-26T08:28:06.494Z,13.43
2023-01-26T08:33:12.334Z,12.60
2023-01-26T08:38:19.346Z,12.88
2023-01-26T08:43:25.143Z,13.15
2023-01-26T08:48:28.400Z,13.07
2023-01-26T08:53:43.137Z,13.45
2023-01-26T08:58:46.257Z,11.48
2023-01-26T09:03:49.083Z,10.50
2023-01-26T09:08:53.165Z,19.48
2023-01-26T09:13:57.293Z,9.45
2023-01-26T09:19:00.309Z,8.95
2023-01-26T09:24:04.711Z,9.07
2023-01-26T09:29:07.458Z,9.13
2023-01-26T09:34:10.236Z,9.13
2023-01-26T09:39:14.715Z,8.27
2023-01-26T09:44:21.563Z,8.20
2023-01-26T09:49:30.199Z,7.38
2023-01-26T09:54:39.309Z,8.75
2023-01-26T09:59:49.883Z,7.57
2023-01-26T10:04:58.893Z,7.40
2023-01-26T10:10:06.908Z,7.57
2023-01-26T10:15:32.538Z,8.52
2023-01-26T10:20:38.101Z,9.82
2023-01-26T10:25:44.250Z,8.05
2023-01-26T10:30:48.807Z,8.95
2023-01-26T10:35:52.024Z,8.73
2023-01-26T10:40:56.499Z,9.82
2023-01-26T10:45:59.383Z,8.50
2023-01-26T10:51:16.269Z,9.52
2023-01-26T10:56:20.489Z,8.88
2023-01-26T11:01:27.570Z,9.98
2023-01-26T11:06:31.353Z,9.13
2023-01-26T11:11:35.405Z,10.02
2023-01-26T11:16:39.065Z,10.10
2023-01-26T11:21:48.089Z,9.48
2023-01-26T11:27:29.879Z,11.43
2023-01-26T11:32:43.550Z,11.40
2023-01-26T11:37:52.457Z,9.60
2023-01-26T11:43:28.241Z,9.45
2023-01-26T11:48:40.534Z,10.63
2023-01-26T11:54:01.286Z,11.05
2023-01-26T11:59:13.360Z,10.07
2023-01-26T12:04:20.135Z,10.05
2023-01-26T12:09:32.729Z,13.50
2023-01-26T12:14:43.519Z,9.85
2023-01-26T12:19:53.715Z,12.35
2023-01-26T12:25:18.576Z,10.45
2023-01-26T12:30:35.486Z,10.43
2023-01-26T12:36:03.865Z,11.88
2023-01-26T12:41:12.646Z,9.63
2023-01-26T12:46:18.381Z,9.13
2023-01-26T12:51:26.677Z,8.88
2023-01-26T12:56:36.001Z,9.77
2023-01-26T13:01:43.222Z,8.63
2023-01-26T13:06:46.033Z,8.80
2023-01-26T13:11:51.668Z,7.22
2023-01-26T13:16:56.043Z,7.00
2023-01-26T13:21:58.902Z,7.03
2023-01-26T13:27:01.668Z,6.97
2023-01-26T13:32:55.006Z,8.55
2023-01-26T13:38:05.936Z,7.32
2023-01-26T13:43:26.162Z,5.75
2023-01-26T13:48:48.698Z,6.22
2023-01-26T13:53:59.675Z,6.30
2023-01-26T13:59:08.494Z,6.10
2023-01-26T14:04:16.021Z,6.80
2023-01-26T14:09:20.569Z,5.87
2023-01-26T14:14:27.073Z,6.38
2023-01-26T14:19:29.991Z,6.65
2023-01-26T14:24:36.045Z,6.47
2023-01-26T14:29:40.842Z,6.53
2023-01-26T14:34:53.625Z,6.60
2023-01-26T14:40:22.871Z,6.30
2023-01-26T14:45:31.140Z,6.85
2023-01-26T14:50:35.009Z,6.22
2023-01-26T14:55:39.142Z,7.10
2023-01-26T15:00:41.990Z,6.75
2023-01-26T15:05:45.945Z,8.45
2023-01-26T15:11:19.151Z,8.60
2023-01-26T15:16:24.009Z,8.45
2023-01-26T15:21:33.838Z,8.55
2023-01-26T15:26:38.296Z,7.82
2023-01-26T15:31:42.930Z,10.13
2023-01-26T15:36:50.138Z,8.52
2023-01-26T15:42:12.289Z,8.15
2023-01-26T15:47:15.119Z,9.70
2023-01-26T15:52:20.369Z,9.85
2023-01-26T15:57:24.430Z,8.30
2023-01-26T16:02:29.603Z,8.70
2023-01-26T16:07:32.341Z,7.95
2023-01-26T16:12:36.869Z,9.38
2023-01-26T16:17:39.622Z,9.73
2023-01-26T16:22:42.423Z,9.45
2023-01-26T16:27:46.534Z,10.63
2023-01-26T16:32:50.513Z,9.82
2023-01-26T16:37:53.314Z,11.88
2023-01-26T16:42:57.463Z,12.20
2023-01-26T16:48:01.206Z,11.07
2023-01-26T16:53:15.640Z,10.88
2023-01-26T16:58:19.979Z,10.95
2023-01-26T17:03:23.089Z,10.48
2023-01-26T17:08:25.902Z,11.23
2023-01-26T17:13:31.206Z,9.90
2023-01-26T17:18:34.680Z,8.65
2023-01-26T17:23:41.474Z,8.43
2023-01-26T17:28:46.363Z,10.73
2023-01-26T17:33:51.741Z,8.90
2023-01-26T17:38:54.494Z,8.43
2023-01-26T17:43:58.594Z,7.60
2023-01-26T17:49:01.348Z,6.80
2023-01-26T17:54:04.234Z,7.65
2023-01-26T17:59:08.463Z,7.22
2023-01-26T18:04:11.226Z,7.07
2023-01-26T18:09:14.061Z,7.65
2023-01-26T18:14:18.227Z,7.60
2023-01-26T18:19:20.974Z,6.85
2023-01-26T18:24:23.907Z,7.28
2023-01-26T18:29:28.036Z,6.70
2023-01-26T18:34:30.759Z,6.10
2023-01-26T18:39:33.560Z,7.63
2023-01-26T18:44:37.728Z,7.50
2023-01-26T18:49:40.464Z,6.97
2023-01-26T18:54:43.635Z,9.02
2023-01-26T18:59:48.144Z,7.68
2023-01-26T19:04:53.549Z,7.72
2023-01-26T19:09:57.952Z,8.05
2023-01-26T19:15:02.167Z,8.13
2023-01-26T19:20:05.800Z,8.23
2023-01-26T19:25:11.639Z,7.50
2023-01-26T19:30:16.728Z,9.60
2023-01-26T19:35:20.040Z,8.68
2023-01-26T19:40:23.481Z,8.88
2023-01-26T19:45:28.502Z,9.20
2023-01-26T19:50:35.670Z,9.48
2023-01-26T19:55:38.646Z,9.65
2023-01-26T20:00:45.220Z,10.60
2023-01-26T20:05:48.067Z,9.23
2023-01-26T20:10:51.262Z,9.77
2023-01-26T20:15:58.246Z,8.95
2023-01-26T20:21:01.219Z,7.75
2023-01-26T20:26:08.676Z,9.20
2023-01-26T20:31:15.650Z,8.83
2023-01-26T20:36:22.004Z,8.15
2023-01-26T20:41:28.406Z,8.88
2023-01-26T20:46:42.558Z,9.02
2023-01-26T20:51:52.317Z,9.02
2023-01-26T20:56:57.538Z,8.93
2023-01-26T21:02:01.809Z,9.48
2023-01-26T21:07:04.768Z,10.13
2023-01-26T21:12:07.659Z,9.65
2023-01-26T21:17:11.871Z,8.68
2023-01-26T21:22:14.977Z,8.23
2023-01-26T21:27:18.344Z,8.35
2023-01-26T21:32:36.044Z,7.18
2023-01-26T21:37:38.989Z,7.40
2023-01-26T21:42:41.953Z,7.00
2023-01-26T21:48:06.108Z,6.63
2023-01-26T21:53:08.862Z,6.85
2023-01-26T21:58:29.044Z,6.15
2023-01-26T22:03:33.412Z,6.22
2023-01-26T22:08:36.243Z,5.80
2023-01-26T22:13:39.122Z,5.63
2023-01-26T22:18:43.851Z,4.75
2023-01-26T22:23:47.018Z,5.30
2023-01-26T22:28:54.113Z,4.70
2023-01-26T22:34:00.227Z,4.55
2023-01-26T22:39:02.950Z,4.05
2023-01-26T22:44:06.144Z,4.25
2023-01-26T22:49:11.017Z,4.32
2023-01-26T22:54:13.739Z,3.60
2023-01-26T22:59:16.453Z,3.30
2023-01-26T23:04:20.789Z,3.10
2023-01-26T23:09:23.619Z,2.60
2023-01-26T23:14:35.237Z,2.42
2023-01-26T23:19:39.340Z,2.50
2023-01-26T23:25:02.109Z,2.10
2023-01-26T23:30:05.678Z,2.47
2023-01-26T23:35:10.325Z,2.00
2023-01-26T23:40:14.984Z,2.15
2023-01-26T23:45:18.025Z,2.38
2023-01-26T23:50:22.314Z,2.10
2023-01-26T23:55:25.078Z,2.40
